createdAt,value
2022-11-10T00:01:20.255Z,100.00
2022-11-10T00:03:51.633Z,100.00
2022-11-10T00:06:21.269Z,100.00
2022-11-10T00:08:49.644Z,100.00
2022-11-10T00:11:17.966Z,100.00
2022-11-10T00:14:06.848Z,100.00
2022-11-10T00:17:03.262Z,100.00
2022-11-10T00:19:32.025Z,100.00
2022-11-10T00:22:02.117Z,100.00
2022-11-10T00:24:30.744Z,100.00
2022-11-10T00:26:58.746Z,100.00
2022-11-10T00:29:26.827Z,100.00
2022-11-10T00:31:54.827Z,100.00
2022-11-10T00:34:22.930Z,100.00
2022-11-10T00:36:50.911Z,100.00
2022-11-10T00:39:20.514Z,100.00
2022-11-10T00:41:48.590Z,100.00
2022-11-10T00:44:16.597Z,100.00
2022-11-10T00:46:44.641Z,100.00
2022-11-10T00:49:12.696Z,100.00
2022-11-10T00:51:40.807Z,100.00
2022-11-10T00:54:09.089Z,100.00
2022-11-10T00:56:38.716Z,100.00
2022-11-10T00:59:06.833Z,100.00
2022-11-10T01:01:34.876Z,100.00
2022-11-10T01:04:03.078Z,100.00
2022-11-10T01:06:31.315Z,100.00
2022-11-10T01:08:59.355Z,100.00
2022-11-10T01:11:29.079Z,100.00
2022-11-10T01:13:58.635Z,100.00
2022-11-10T01:16:28.211Z,100.00
2022-11-10T01:18:58.309Z,100.00
2022-11-10T01:21:27.415Z,100.00
2022-11-10T01:23:55.505Z,100.00
2022-11-10T01:26:23.990Z,100.00
2022-11-10T01:28:52.027Z,100.00
2022-11-10T01:31:22.951Z,100.00
2022-11-10T01:33:51.045Z,100.00
2022-11-10T01:36:19.132Z,100.00
2022-11-10T01:38:47.158Z,100.00
2022-11-10T01:41:15.693Z,100.00
2022-11-10T01:43:43.724Z,100.00
2022-11-10T01:46:14.991Z,100.00
2022-11-10T01:48:47.316Z,100.00
2022-11-10T01:51:18.786Z,100.00
2022-11-10T01:53:50.839Z,100.00
2022-11-10T01:56:18.958Z,100.00
2022-11-10T01:58:51.331Z,100.00
2022-11-10T02:01:19.656Z,100.00
2022-11-10T02:03:51.664Z,100.00
2022-11-10T02:06:22.471Z,100.00
2022-11-10T02:08:51.667Z,100.00
2022-11-10T02:11:19.965Z,100.00
2022-11-10T02:13:48.036Z,100.00
2022-11-10T02:16:16.520Z,100.00
2022-11-10T02:18:44.667Z,100.00
2022-11-10T02:21:17.850Z,100.00
2022-11-10T02:23:48.508Z,100.00
2022-11-10T02:26:19.117Z,100.00
2022-11-10T02:28:47.289Z,100.00
2022-11-10T02:31:15.373Z,100.00
2022-11-10T02:33:43.496Z,100.00
2022-11-10T02:36:13.183Z,100.00
2022-11-10T02:38:41.213Z,100.00
2022-11-10T02:41:10.332Z,100.00
2022-11-10T02:43:38.897Z,100.00
2022-11-10T02:46:07.365Z,100.00
2022-11-10T02:48:35.681Z,100.00
2022-11-10T02:51:03.835Z,100.00
2022-11-10T02:53:33.230Z,100.00
2022-11-10T02:56:01.405Z,100.00
2022-11-10T02:58:29.373Z,100.00
2022-11-10T03:00:57.552Z,100.00
2022-11-10T03:03:25.675Z,100.00
2022-11-10T03:05:53.715Z,100.00
2022-11-10T03:08:21.762Z,100.00
2022-11-10T03:10:54.543Z,100.00
2022-11-10T03:13:22.969Z,100.00
2022-11-10T03:15:53.865Z,100.00
2022-11-10T03:18:24.658Z,100.00
2022-11-10T03:20:53.074Z,100.00
2022-11-10T03:23:21.756Z,100.00
2022-11-10T03:25:51.366Z,100.00
2022-11-10T03:28:19.476Z,100.00
2022-11-10T03:30:47.752Z,100.00
2022-11-10T03:33:15.847Z,100.00
2022-11-10T03:35:43.868Z,100.00
2022-11-10T03:38:11.867Z,100.00
2022-11-10T03:41:12.105Z,100.00
2022-11-10T03:43:30.407Z,100.00
2022-11-10T03:45:58.386Z,100.00
2022-11-10T03:48:26.457Z,100.00
2022-11-10T03:50:54.515Z,100.00
2022-11-10T03:53:23.284Z,100.00
2022-11-10T03:55:51.700Z,100.00
2022-11-10T03:58:19.743Z,100.00
2022-11-10T04:00:49.104Z,100.00
2022-11-10T04:03:17.197Z,100.00
2022-11-10T04:06:02.327Z,100.00
2022-11-10T04:08:47.703Z,100.00
2022-11-10T04:11:36.136Z,100.00
2022-11-10T04:14:21.904Z,100.00
2022-11-10T04:16:51.362Z,100.00
2022-11-10T04:19:19.396Z,100.00
2022-11-10T04:21:47.509Z,100.00
2022-11-10T04:24:15.533Z,100.00
2022-11-10T04:26:43.969Z,100.00
2022-11-10T04:29:13.068Z,100.00
2022-11-10T04:31:42.234Z,100.00
2022-11-10T04:34:12.863Z,100.00
2022-11-10T04:36:41.867Z,100.00
2022-11-10T04:39:10.858Z,100.00
2022-11-10T04:41:38.910Z,100.00
2022-11-10T04:44:07.176Z,100.00
2022-11-10T04:46:36.729Z,100.00
2022-11-10T04:49:05.754Z,100.00
2022-11-10T04:51:37.631Z,100.00
2022-11-10T04:54:06.903Z,100.00
2022-11-10T04:56:35.030Z,100.00
2022-11-10T04:59:03.338Z,100.00
2022-11-10T05:01:33.464Z,100.00
2022-11-10T05:04:02.029Z,100.00
2022-11-10T05:06:30.234Z,100.00
2022-11-10T05:08:59.739Z,100.00
2022-11-10T05:11:27.955Z,100.00
2022-11-10T05:13:55.973Z,100.00
2022-11-10T05:16:24.605Z,100.00
2022-11-10T05:18:55.971Z,100.00
2022-11-10T05:21:24.011Z,100.00
2022-11-10T05:23:52.030Z,100.00
2022-11-10T05:26:21.477Z,100.00
2022-11-10T05:28:49.593Z,100.00
2022-11-10T05:31:17.661Z,100.00
2022-11-10T05:33:45.984Z,100.00
2022-11-10T05:36:14.055Z,100.00
2022-11-10T05:38:43.916Z,100.00
2022-11-10T05:41:12.370Z,100.00
2022-11-10T05:43:43.843Z,100.00
2022-11-10T05:46:12.588Z,100.00
2022-11-10T05:48:40.721Z,100.00
2022-11-10T05:51:08.728Z,100.00
2022-11-10T05:53:36.781Z,100.00
2022-11-10T05:56:04.915Z,100.00
2022-11-10T05:58:33.952Z,100.00
2022-11-10T06:01:03.477Z,100.00
2022-11-10T06:03:34.310Z,100.00
2022-11-10T06:06:02.747Z,100.00
2022-11-10T06:08:30.945Z,100.00
2022-11-10T06:10:59.270Z,100.00
2022-11-10T06:13:28.142Z,100.00
2022-11-10T06:15:56.368Z,100.00
2022-11-10T06:18:26.598Z,100.00
2022-11-10T06:20:54.842Z,100.00
2022-11-10T06:23:23.265Z,100.00
2022-11-10T06:25:51.620Z,100.00
2022-11-10T06:28:19.598Z,100.00
2022-11-10T06:30:47.650Z,100.00
2022-11-10T06:33:15.656Z,100.00
2022-11-10T06:35:47.073Z,100.00
2022-11-10T06:38:15.469Z,100.00
2022-11-10T06:40:43.563Z,100.00
2022-11-10T06:43:11.570Z,100.00
2022-11-10T06:45:40.392Z,100.00
2022-11-10T06:48:11.296Z,100.00
2022-11-10T06:50:39.523Z,100.00
2022-11-10T06:53:11.029Z,100.00
2022-11-10T06:55:39.357Z,100.00
2022-11-10T06:58:07.861Z,100.00
2022-11-10T07:00:41.736Z,100.00
2022-11-10T07:03:17.194Z,100.00
2022-11-10T07:05:47.487Z,100.00
2022-11-10T07:08:19.216Z,100.00
2022-11-10T07:10:54.085Z,100.00
2022-11-10T07:13:24.544Z,100.00
2022-11-10T07:15:52.989Z,100.00
2022-11-10T07:18:21.566Z,100.00
2022-11-10T07:20:49.549Z,100.00
2022-11-10T07:23:19.239Z,100.00
2022-11-10T07:25:47.703Z,100.00
2022-11-10T07:28:18.239Z,100.00
2022-11-10T08:04:48.139Z,100.00
2022-11-10T08:07:16.834Z,100.00
2022-11-10T08:09:45.839Z,100.00
2022-11-10T08:12:14.016Z,100.00
2022-11-10T08:14:42.214Z,100.00
2022-11-10T08:17:10.721Z,100.00
2022-11-10T08:19:38.952Z,100.00
2022-11-10T08:22:09.129Z,100.00
2022-11-10T08:24:37.369Z,100.00
2022-11-10T08:27:05.748Z,100.00
2022-11-10T08:29:33.908Z,100.00
2022-11-10T08:32:02.799Z,100.00
2022-11-10T08:34:31.591Z,100.00
2022-11-10T08:36:59.785Z,100.00
2022-11-10T08:39:38.958Z,100.00
2022-11-10T08:42:08.350Z,100.00
2022-11-10T08:44:36.561Z,100.00
2022-11-10T08:47:04.899Z,100.00
2022-11-10T08:49:33.240Z,100.00
2022-11-10T08:52:01.615Z,100.00
2022-11-10T08:54:31.085Z,100.00
2022-11-10T08:56:59.617Z,100.00
2022-11-10T08:59:27.884Z,100.00
2022-11-10T09:01:56.721Z,100.00
2022-11-10T09:04:29.488Z,100.00
2022-11-10T09:06:57.967Z,100.00
2022-11-10T09:09:26.680Z,100.00
2022-11-10T09:11:56.238Z,100.00
2022-11-10T09:14:25.873Z,100.00
2022-11-10T09:16:53.968Z,100.00
2022-11-10T09:19:22.358Z,100.00
2022-11-10T09:21:50.968Z,100.00
2022-11-10T09:24:19.626Z,100.00
2022-11-10T09:26:48.276Z,100.00
2022-11-10T09:29:17.926Z,100.00
2022-11-10T09:31:46.176Z,100.00
2022-11-10T09:34:15.488Z,100.00
2022-11-10T09:36:43.635Z,100.00
2022-11-10T09:39:11.747Z,100.00
2022-11-10T09:41:41.723Z,100.00
2022-11-10T09:44:15.160Z,100.00
2022-11-10T09:46:46.790Z,100.00
2022-11-10T09:49:26.991Z,100.00
2022-11-10T09:51:55.786Z,100.00
2022-11-10T09:54:32.086Z,100.00
2022-11-10T09:57:01.641Z,100.00
2022-11-10T09:59:32.448Z,100.00
2022-11-10T10:02:05.869Z,100.00
2022-11-10T10:04:54.579Z,100.00
2022-11-10T10:07:26.463Z,100.00
2022-11-10T10:09:59.446Z,100.00
2022-11-10T10:12:46.142Z,100.00
2022-11-10T10:15:25.758Z,100.00
2022-11-10T10:18:20.830Z,100.00
2022-11-10T10:21:02.308Z,100.00
2022-11-10T10:24:07.077Z,100.00
2022-11-10T10:26:26.503Z,100.00
2022-11-10T10:28:55.405Z,100.00
2022-11-10T10:31:26.160Z,100.00
2022-11-10T10:33:56.243Z,100.00
2022-11-10T10:36:26.955Z,100.00
2022-11-10T10:38:57.555Z,100.00
2022-11-10T10:41:27.547Z,100.00
2022-11-10T10:43:57.521Z,100.00
2022-11-10T10:46:34.440Z,100.00
2022-11-10T10:49:28.027Z,100.00
2022-11-10T10:52:05.383Z,100.00
2022-11-10T10:54:35.134Z,100.00
2022-11-10T10:57:05.092Z,100.00
2022-11-10T10:59:33.617Z,100.00
2022-11-10T11:02:02.933Z,100.00
2022-11-10T11:04:35.138Z,100.00
2022-11-10T11:07:05.885Z,100.00
2022-11-10T11:09:42.608Z,100.00
2022-11-10T11:12:13.762Z,100.00
2022-11-10T11:14:46.002Z,100.00
2022-11-10T11:17:18.959Z,100.00
2022-11-10T11:19:49.582Z,100.00
2022-11-10T11:22:35.573Z,100.00
2022-11-10T11:25:14.050Z,100.00
2022-11-10T11:27:50.403Z,100.00
2022-11-10T11:30:20.084Z,100.00
2022-11-10T11:32:59.830Z,98.12
2022-11-10T11:35:32.980Z,90.82
2022-11-10T11:38:11.637Z,83.11
2022-11-10T11:40:49.775Z,79.00
2022-11-10T11:43:28.902Z,76.13
2022-11-10T11:46:03.421Z,68.93
2022-11-10T11:48:48.564Z,59.48
2022-11-10T11:51:23.832Z,54.24
2022-11-10T11:54:25.152Z,47.56
2022-11-10T11:56:53.697Z,46.00
2022-11-10T11:59:51.528Z,44.95
2022-11-10T12:02:36.976Z,46.05
2022-11-10T12:05:15.150Z,47.63
2022-11-10T12:07:53.756Z,45.62
2022-11-10T12:10:30.044Z,43.32
2022-11-10T12:13:10.350Z,43.14
2022-11-10T12:15:44.809Z,41.06
2022-11-10T12:18:25.087Z,40.86
2022-11-10T12:21:05.862Z,42.91
2022-11-10T12:23:40.162Z,39.69
2022-11-10T12:26:15.067Z,38.34
2022-11-10T12:28:46.504Z,40.95
2022-11-10T12:31:20.609Z,40.70
2022-11-10T12:33:52.642Z,42.48
2022-11-10T12:36:22.524Z,41.85
2022-11-10T12:39:00.750Z,41.05
2022-11-10T12:41:32.779Z,41.71
2022-11-10T12:44:09.217Z,42.14
2022-11-10T12:46:37.927Z,42.17
2022-11-10T12:49:12.760Z,40.29
2022-11-10T12:51:47.658Z,40.82
2022-11-10T12:54:17.996Z,42.99
2022-11-10T12:56:52.613Z,42.41
2022-11-10T12:59:29.074Z,41.20
2022-11-10T13:02:03.171Z,44.34
2022-11-10T13:04:32.985Z,44.20
2022-11-10T13:07:04.734Z,40.62
2022-11-10T13:09:39.086Z,40.94
2022-11-10T13:12:17.896Z,41.53
2022-11-10T13:14:47.608Z,39.53
2022-11-10T13:17:54.001Z,40.29
2022-11-10T13:20:48.575Z,40.70
2022-11-10T13:23:23.315Z,39.16
2022-11-10T13:25:56.390Z,40.95
2022-11-10T13:28:56.771Z,39.13
2022-11-10T13:31:52.153Z,38.02
2022-11-10T13:34:31.467Z,42.20
2022-11-10T13:36:59.951Z,43.50
2022-11-10T13:39:30.954Z,46.98
2022-11-10T13:42:04.367Z,46.84
2022-11-10T13:44:34.470Z,47.55
2022-11-10T13:47:37.604Z,45.76
2022-11-10T13:50:19.632Z,43.07
2022-11-10T13:52:56.789Z,42.44
2022-11-10T13:55:49.209Z,44.65
2022-11-10T13:58:26.518Z,46.04
2022-11-10T14:01:23.092Z,46.88
2022-11-10T14:03:58.018Z,49.23
2022-11-10T14:06:28.993Z,50.70
2022-11-10T14:09:03.009Z,50.65
2022-11-10T14:11:37.106Z,51.06
2022-11-10T14:14:14.123Z,53.49
2022-11-10T14:16:43.689Z,59.01
2022-11-10T14:19:26.460Z,64.74
2022-11-10T14:21:58.276Z,68.60
2022-11-10T14:24:29.635Z,70.90
2022-11-10T14:27:03.632Z,72.96
2022-11-10T14:29:40.294Z,76.64
2022-11-10T14:32:16.337Z,77.95
2022-11-10T14:34:51.366Z,77.96
2022-11-10T14:37:24.780Z,78.04
2022-11-10T14:39:55.341Z,79.15
2022-11-10T14:42:26.000Z,80.02
2022-11-10T14:45:13.041Z,81.54
2022-11-10T14:47:41.341Z,82.12
2022-11-10T14:50:19.450Z,82.97
2022-11-10T14:52:50.879Z,84.45
2022-11-10T14:55:22.111Z,85.14
2022-11-10T14:57:56.611Z,85.16
2022-11-10T15:00:28.404Z,84.83
2022-11-10T15:02:59.549Z,87.08
2022-11-10T15:05:31.778Z,88.62
2022-11-10T15:08:01.332Z,87.63
2022-11-10T15:10:44.876Z,88.42
2022-11-10T15:13:21.546Z,88.62
2022-11-10T15:15:53.639Z,90.30
2022-11-10T15:18:27.602Z,93.38
2022-11-10T15:21:02.246Z,95.06
2022-11-10T15:23:33.946Z,95.90
2022-11-10T15:26:02.689Z,97.05
2022-11-10T15:28:32.812Z,97.21
2022-11-10T15:31:04.618Z,97.76
2022-11-10T15:33:34.216Z,99.10
2022-11-10T15:36:19.153Z,100.00
2022-11-10T15:39:03.199Z,100.00
2022-11-10T15:41:32.730Z,100.00
2022-11-10T15:44:14.438Z,100.00
2022-11-10T15:46:44.652Z,100.00
2022-11-10T15:49:17.546Z,100.00
2022-11-10T15:51:46.150Z,100.00
2022-11-10T15:54:14.576Z,100.00
2022-11-10T15:56:43.131Z,100.00
2022-11-10T15:59:12.212Z,100.00
2022-11-10T16:01:41.293Z,100.00
2022-11-10T16:04:13.241Z,100.00
2022-11-10T16:06:42.932Z,100.00
2022-11-10T16:09:14.072Z,100.00
2022-11-10T16:11:44.414Z,100.00
2022-11-10T16:14:15.909Z,100.00
2022-11-10T16:16:44.422Z,100.00
2022-11-10T16:19:14.487Z,100.00
2022-11-10T16:21:42.620Z,100.00
2022-11-10T16:24:10.885Z,100.00
2022-11-10T16:26:39.203Z,100.00
2022-11-10T16:29:13.813Z,100.00
2022-11-10T16:31:42.341Z,100.00
2022-11-10T16:34:14.915Z,100.00
2022-11-10T16:36:44.011Z,100.00
2022-11-10T16:39:14.466Z,100.00
2022-11-10T16:41:42.830Z,100.00
2022-11-10T16:44:14.953Z,100.00
2022-11-10T16:46:45.036Z,100.00
2022-11-10T16:49:24.804Z,100.00
2022-11-10T16:51:53.100Z,100.00
2022-11-10T16:54:21.451Z,100.00
2022-11-10T16:56:51.984Z,100.00
2022-11-10T16:59:20.321Z,100.00
2022-11-10T17:01:49.231Z,100.00
2022-11-10T17:04:18.880Z,100.00
2022-11-10T17:06:47.121Z,100.00
2022-11-10T17:09:18.795Z,100.00
2022-11-10T17:11:47.131Z,100.00
2022-11-10T17:14:16.583Z,100.00
2022-11-10T17:16:45.634Z,100.00
2022-11-10T17:19:20.415Z,100.00
2022-11-10T17:21:49.688Z,100.00
2022-11-10T17:24:18.876Z,100.00
2022-11-10T17:26:47.471Z,100.00
2022-11-10T17:29:18.689Z,100.00
2022-11-10T17:31:47.101Z,100.00
2022-11-10T17:34:15.649Z,100.00
2022-11-10T17:36:45.583Z,100.00
2022-11-10T17:39:15.168Z,100.00
2022-11-10T17:41:43.524Z,100.00
2022-11-10T17:44:14.927Z,100.00
2022-11-10T17:46:44.241Z,100.00
2022-11-10T17:49:13.412Z,100.00
2022-11-10T17:51:41.708Z,100.00
2022-11-10T17:54:14.975Z,100.00
2022-11-10T17:56:43.336Z,100.00
2022-11-10T17:59:11.939Z,100.00
2022-11-10T18:01:40.440Z,100.00
2022-11-10T18:04:10.074Z,100.00
2022-11-10T18:06:38.327Z,100.00
2022-11-10T18:09:06.641Z,100.00
2022-11-10T18:11:36.142Z,100.00
2022-11-10T18:14:04.526Z,100.00
2022-11-10T18:16:33.027Z,100.00
2022-11-10T18:19:01.741Z,100.00
2022-11-10T18:21:30.209Z,100.00
2022-11-10T18:23:58.383Z,100.00
2022-11-10T18:26:26.934Z,100.00
2022-11-10T18:28:56.889Z,100.00
2022-11-10T18:31:25.310Z,100.00
2022-11-10T18:33:55.503Z,100.00
2022-11-10T18:36:23.543Z,100.00
2022-11-10T18:38:51.779Z,100.00
2022-11-10T18:41:37.908Z,100.00
2022-11-10T18:44:14.547Z,100.00
2022-11-10T18:46:43.449Z,100.00
2022-11-10T18:49:11.648Z,100.00
2022-11-10T18:51:40.106Z,100.00
2022-11-10T18:54:08.794Z,100.00
2022-11-10T18:56:36.971Z,100.00
2022-11-10T18:59:07.009Z,100.00
2022-11-10T19:01:40.217Z,100.00
2022-11-10T19:04:11.446Z,100.00
2022-11-10T19:06:39.761Z,100.00
2022-11-10T19:09:08.470Z,100.00
2022-11-10T19:11:36.902Z,100.00
2022-11-10T19:14:05.481Z,100.00
2022-11-10T19:16:33.818Z,100.00
2022-11-10T19:19:03.734Z,100.00
2022-11-10T19:21:34.447Z,100.00
2022-11-10T19:24:03.013Z,100.00
2022-11-10T19:26:32.934Z,100.00
2022-11-10T19:29:02.003Z,100.00
2022-11-10T19:31:30.485Z,100.00
2022-11-10T19:33:59.684Z,100.00
2022-11-10T19:36:29.825Z,100.00
2022-11-10T19:38:58.061Z,100.00
2022-11-10T19:41:28.431Z,100.00
2022-11-10T19:43:57.208Z,100.00
2022-11-10T19:46:27.709Z,100.00
2022-11-10T19:48:56.188Z,100.00
2022-11-10T19:51:25.943Z,100.00
2022-11-10T19:54:01.631Z,100.00
2022-11-10T19:56:32.044Z,100.00
2022-11-10T19:59:01.009Z,100.00
2022-11-10T20:01:33.468Z,100.00
2022-11-10T20:04:08.978Z,100.00
2022-11-10T20:06:37.659Z,100.00
2022-11-10T20:09:15.463Z,100.00
2022-11-10T20:11:46.231Z,100.00
2022-11-10T20:14:16.130Z,100.00
2022-11-10T20:16:44.269Z,100.00
2022-11-10T20:19:12.563Z,100.00
2022-11-10T20:21:40.739Z,100.00
2022-11-10T20:24:09.058Z,100.00
2022-11-10T20:26:39.685Z,100.00
2022-11-10T20:29:08.390Z,100.00
2022-11-10T20:31:38.587Z,100.00
2022-11-10T20:34:06.898Z,100.00
2022-11-10T20:36:35.183Z,100.00
2022-11-10T20:39:05.079Z,100.00
2022-11-10T20:41:33.753Z,100.00
2022-11-10T20:44:05.776Z,100.00
2022-11-10T20:49:25.011Z,100.00
2022-11-10T20:51:53.262Z,100.00
2022-11-10T20:54:21.928Z,100.00
2022-11-10T20:56:50.321Z,100.00
2022-11-10T20:59:21.159Z,100.00
2022-11-10T21:01:50.086Z,100.00
2022-11-10T21:04:19.338Z,100.00
2022-11-10T21:06:47.771Z,100.00
2022-11-10T21:09:18.235Z,100.00
2022-11-10T21:12:04.489Z,100.00
2022-11-10T21:14:34.414Z,100.00
2022-11-10T21:17:03.741Z,100.00
2022-11-10T21:19:35.064Z,100.00
2022-11-10T21:22:03.614Z,100.00
2022-11-10T21:24:31.760Z,100.00
2022-11-10T21:27:00.339Z,100.00
2022-11-10T21:29:30.160Z,100.00
2022-11-10T21:31:59.997Z,100.00
2022-11-10T21:34:28.116Z,100.00
2022-11-10T21:36:56.258Z,100.00
2022-11-10T21:39:24.687Z,100.00
2022-11-10T21:41:52.912Z,100.00
2022-11-10T21:44:21.033Z,100.00
2022-11-10T21:46:49.233Z,100.00
2022-11-10T21:49:19.026Z,100.00
2022-11-10T21:51:47.116Z,100.00
2022-11-10T21:54:16.154Z,100.00
2022-11-10T21:56:46.265Z,100.00
2022-11-10T21:59:16.088Z,100.00
2022-11-10T22:01:48.794Z,100.00
2022-11-10T22:04:19.860Z,100.00
2022-11-10T22:07:05.930Z,100.00
2022-11-10T22:09:51.452Z,100.00
2022-11-10T22:12:37.543Z,100.00
2022-11-10T22:15:25.065Z,100.00
2022-11-10T22:18:10.923Z,100.00
2022-11-10T22:20:40.562Z,100.00
2022-11-10T22:23:09.074Z,100.00
2022-11-10T22:25:37.312Z,100.00
2022-11-10T22:28:20.781Z,100.00
2022-11-10T22:30:49.251Z,100.00
2022-11-10T22:33:30.817Z,100.00
2022-11-10T22:36:02.870Z,100.00
2022-11-10T22:38:31.425Z,100.00
2022-11-10T22:41:31.762Z,100.00
2022-11-10T22:44:06.481Z,100.00
2022-11-10T22:46:36.700Z,100.00
2022-11-10T22:49:08.866Z,100.00
2022-11-10T22:51:39.590Z,100.00
2022-11-10T22:54:11.648Z,100.00
2022-11-10T22:56:40.376Z,100.00
2022-11-10T22:59:08.990Z,100.00
2022-11-10T23:01:37.958Z,100.00
2022-11-10T23:04:06.945Z,100.00
2022-11-10T23:06:35.263Z,100.00
2022-11-10T23:09:05.936Z,100.00
2022-11-10T23:11:34.887Z,100.00
2022-11-10T23:14:03.440Z,100.00
2022-11-10T23:16:34.280Z,100.00
2022-11-10T23:19:03.243Z,100.00
2022-11-10T23:21:32.284Z,100.00
2022-11-10T23:24:00.817Z,100.00
2022-11-10T23:26:33.917Z,100.00
2022-11-10T23:29:02.404Z,100.00
2022-11-10T23:31:30.648Z,100.00
2022-11-10T23:33:59.037Z,100.00
2022-11-10T23:36:28.657Z,100.00
2022-11-10T23:38:57.401Z,100.00
2022-11-10T23:41:26.230Z,100.00
2022-11-10T23:43:56.295Z,100.00
2022-11-10T23:46:24.378Z,100.00
2022-11-10T23:48:52.741Z,100.00
2022-11-10T23:51:20.904Z,100.00
2022-11-10T23:53:49.209Z,100.00
2022-11-10T23:56:18.012Z,100.00
2022-11-10T23:58:46.346Z,100.00
